sensor_id;sensor_type;location;lat;lon;timestamp;P1;durP1;ratioP1;P2;durP2;ratioP2
67248;SDS011;63247;54.300;18.592;2022-12-07T00:00:53;28.90;;;9.88;;
67248;SDS011;63247;54.300;18.592;2022-12-07T00:03:19;34.00;;;11.20;;
67248;SDS011;63247;54.300;18.592;2022-12-07T00:05:45;37.55;;;11.43;;
67248;SDS011;63247;54.300;18.592;2022-12-07T00:08:10;29.33;;;9.83;;
67248;SDS011;63247;54.300;18.592;2022-12-07T00:10:36;30.03;;;9.73;;
67248;SDS011;63247;54.300;18.592;2022-12-07T00:13:01;30.07;;;9.50;;
67248;SDS011;63247;54.300;18.592;2022-12-07T00:15:26;32.97;;;10.03;;
67248;SDS011;63247;54.300;18.592;2022-12-07T00:17:52;29.48;;;10.05;;
67248;SDS011;63247;54.300;18.592;2022-12-07T00:20:17;32.90;;;9.87;;
67248;SDS011;63247;54.300;18.592;2022-12-07T00:22:43;37.53;;;10.83;;
67248;SDS011;63247;54.300;18.592;2022-12-07T00:25:08;31.53;;;9.60;;
67248;SDS011;63247;54.300;18.592;2022-12-07T00:27:34;32.75;;;10.32;;
67248;SDS011;63247;54.300;18.592;2022-12-07T00:29:59;32.17;;;10.33;;
67248;SDS011;63247;54.300;18.592;2022-12-07T00:32:24;34.50;;;10.07;;
67248;SDS011;63247;54.300;18.592;2022-12-07T00:34:50;33.33;;;9.93;;
67248;SDS011;63247;54.300;18.592;2022-12-07T00:37:15;27.17;;;9.03;;
67248;SDS011;63247;54.300;18.592;2022-12-07T00:39:41;29.58;;;10.13;;
67248;SDS011;63247;54.300;18.592;2022-12-07T00:42:06;28.38;;;9.68;;
67248;SDS011;63247;54.300;18.592;2022-12-07T00:44:31;33.70;;;9.67;;
67248;SDS011;63247;54.300;18.592;2022-12-07T00:46:57;31.70;;;9.57;;
67248;SDS011;63247;54.300;18.592;2022-12-07T00:49:22;31.13;;;9.47;;
67248;SDS011;63247;54.300;18.592;2022-12-07T00:51:48;26.73;;;9.07;;
67248;SDS011;63247;54.300;18.592;2022-12-07T00:54:14;30.95;;;9.00;;
67248;SDS011;63247;54.300;18.592;2022-12-07T00:56:39;28.70;;;8.87;;
67248;SDS011;63247;54.300;18.592;2022-12-07T00:59:05;26.27;;;8.30;;
67248;SDS011;63247;54.300;18.592;2022-12-07T01:01:32;28.10;;;8.03;;
67248;SDS011;63247;54.300;18.592;2022-12-07T01:03:59;28.00;;;7.95;;
67248;SDS011;63247;54.300;18.592;2022-12-07T01:06:28;28.65;;;8.45;;
67248;SDS011;63247;54.300;18.592;2022-12-07T01:08:54;25.37;;;8.63;;
67248;SDS011;63247;54.300;18.592;2022-12-07T01:11:24;28.00;;;7.80;;
67248;SDS011;63247;54.300;18.592;2022-12-07T01:13:52;26.70;;;8.30;;
67248;SDS011;63247;54.300;18.592;2022-12-07T01:16:19;26.20;;;7.97;;
67248;SDS011;63247;54.300;18.592;2022-12-07T01:18:47;29.88;;;8.98;;
67248;SDS011;63247;54.300;18.592;2022-12-07T01:21:21;25.70;;;7.83;;
67248;SDS011;63247;54.300;18.592;2022-12-07T01:23:54;29.90;;;8.55;;
67248;SDS011;63247;54.300;18.592;2022-12-07T01:26:23;25.75;;;7.78;;
67248;SDS011;63247;54.300;18.592;2022-12-07T01:28:50;30.10;;;9.05;;
67248;SDS011;63247;54.300;18.592;2022-12-07T01:31:19;28.05;;;8.48;;
67248;SDS011;63247;54.300;18.592;2022-12-07T01:33:47;27.37;;;8.47;;
67248;SDS011;63247;54.300;18.592;2022-12-07T01:36:18;27.63;;;8.70;;
67248;SDS011;63247;54.300;18.592;2022-12-07T01:38:46;27.75;;;8.05;;
67248;SDS011;63247;54.300;18.592;2022-12-07T01:41:12;28.38;;;8.45;;
67248;SDS011;63247;54.300;18.592;2022-12-07T01:44:08;29.55;;;7.85;;
67248;SDS011;63247;54.300;18.592;2022-12-07T01:46:32;29.65;;;7.93;;
67248;SDS011;63247;54.300;18.592;2022-12-07T01:48:57;31.23;;;8.55;;
67248;SDS011;63247;54.300;18.592;2022-12-07T01:51:24;30.88;;;8.45;;
67248;SDS011;63247;54.300;18.592;2022-12-07T01:53:50;32.70;;;7.97;;
67248;SDS011;63247;54.300;18.592;2022-12-07T01:56:17;31.87;;;8.57;;
67248;SDS011;63247;54.300;18.592;2022-12-07T01:58:45;33.58;;;8.45;;
67248;SDS011;63247;54.300;18.592;2022-12-07T02:01:11;32.28;;;8.20;;
67248;SDS011;63247;54.300;18.592;2022-12-07T02:03:41;31.43;;;8.57;;
67248;SDS011;63247;54.300;18.592;2022-12-07T02:06:08;31.58;;;7.95;;
67248;SDS011;63247;54.300;18.592;2022-12-07T02:08:36;31.23;;;8.82;;
67248;SDS011;63247;54.300;18.592;2022-12-07T02:11:03;32.43;;;9.00;;
67248;SDS011;63247;54.300;18.592;2022-12-07T02:13:31;32.40;;;8.30;;
67248;SDS011;63247;54.300;18.592;2022-12-07T02:18:57;28.75;;;7.95;;
67248;SDS011;63247;54.300;18.592;2022-12-07T02:41:09;34.88;;;8.00;;
67248;SDS011;63247;54.300;18.592;2022-12-07T02:43:45;31.88;;;8.90;;
67248;SDS011;63247;54.300;18.592;2022-12-07T02:46:17;34.47;;;8.60;;
67248;SDS011;63247;54.300;18.592;2022-12-07T02:48:45;32.87;;;8.40;;
67248;SDS011;63247;54.300;18.592;2022-12-07T02:51:12;31.30;;;8.48;;
67248;SDS011;63247;54.300;18.592;2022-12-07T02:53:39;33.93;;;7.80;;
67248;SDS011;63247;54.300;18.592;2022-12-07T02:56:52;29.25;;;7.72;;
67248;SDS011;63247;54.300;18.592;2022-12-07T02:59:09;27.02;;;7.40;;
67248;SDS011;63247;54.300;18.592;2022-12-07T03:04:35;29.05;;;7.47;;
67248;SDS011;63247;54.300;18.592;2022-12-07T03:10:12;27.92;;;7.18;;
67248;SDS011;63247;54.300;18.592;2022-12-07T03:12:45;39.60;;;8.18;;
67248;SDS011;63247;54.300;18.592;2022-12-07T03:15:36;26.98;;;7.13;;
67248;SDS011;63247;54.300;18.592;2022-12-07T03:18:18;30.08;;;7.57;;
67248;SDS011;63247;54.300;18.592;2022-12-07T03:20:47;27.97;;;6.83;;
67248;SDS011;63247;54.300;18.592;2022-12-07T03:23:15;29.98;;;7.13;;
67248;SDS011;63247;54.300;18.592;2022-12-07T03:25:45;28.42;;;7.07;;
67248;SDS011;63247;54.300;18.592;2022-12-07T03:28:14;26.48;;;6.55;;
67248;SDS011;63247;54.300;18.592;2022-12-07T03:31:06;24.38;;;6.60;;
67248;SDS011;63247;54.300;18.592;2022-12-07T03:33:32;25.17;;;6.40;;
67248;SDS011;63247;54.300;18.592;2022-12-07T03:36:23;19.48;;;5.05;;
67248;SDS011;63247;54.300;18.592;2022-12-07T03:39:02;22.50;;;6.05;;
67248;SDS011;63247;54.300;18.592;2022-12-07T03:41:29;21.42;;;6.07;;
67248;SDS011;63247;54.300;18.592;2022-12-07T03:43:58;17.00;;;4.72;;
67248;SDS011;63247;54.300;18.592;2022-12-07T03:52:02;18.83;;;5.07;;
67248;SDS011;63247;54.300;18.592;2022-12-07T03:54:40;19.90;;;5.10;;
67248;SDS011;63247;54.300;18.592;2022-12-07T03:57:10;20.17;;;5.20;;
67248;SDS011;63247;54.300;18.592;2022-12-07T03:59:37;20.33;;;4.75;;
67248;SDS011;63247;54.300;18.592;2022-12-07T04:02:05;22.38;;;5.35;;
67248;SDS011;63247;54.300;18.592;2022-12-07T04:04:31;17.83;;;5.38;;
67248;SDS011;63247;54.300;18.592;2022-12-07T04:06:58;18.43;;;4.93;;
67248;SDS011;63247;54.300;18.592;2022-12-07T04:09:23;22.27;;;5.78;;
67248;SDS011;63247;54.300;18.592;2022-12-07T04:11:49;16.83;;;4.37;;
67248;SDS011;63247;54.300;18.592;2022-12-07T04:14:14;18.20;;;5.30;;
67248;SDS011;63247;54.300;18.592;2022-12-07T04:16:43;20.23;;;5.80;;
67248;SDS011;63247;54.300;18.592;2022-12-07T04:19:16;22.30;;;5.22;;
67248;SDS011;63247;54.300;18.592;2022-12-07T04:21:42;15.18;;;4.80;;
67248;SDS011;63247;54.300;18.592;2022-12-07T04:24:08;16.67;;;5.10;;
67248;SDS011;63247;54.300;18.592;2022-12-07T04:26:34;16.95;;;5.25;;
67248;SDS011;63247;54.300;18.592;2022-12-07T04:29:00;17.10;;;5.20;;
67248;SDS011;63247;54.300;18.592;2022-12-07T04:31:25;14.93;;;4.53;;
67248;SDS011;63247;54.300;18.592;2022-12-07T04:33:51;18.23;;;4.40;;
67248;SDS011;63247;54.300;18.592;2022-12-07T04:36:16;15.63;;;4.60;;
67248;SDS011;63247;54.300;18.592;2022-12-07T04:38:42;17.07;;;4.90;;
67248;SDS011;63247;54.300;18.592;2022-12-07T04:41:08;15.73;;;4.40;;
67248;SDS011;63247;54.300;18.592;2022-12-07T04:43:34;18.42;;;4.88;;
67248;SDS011;63247;54.300;18.592;2022-12-07T04:46:00;14.50;;;4.80;;
67248;SDS011;63247;54.300;18.592;2022-12-07T04:48:25;16.60;;;4.40;;
67248;SDS011;63247;54.300;18.592;2022-12-07T04:50:51;15.00;;;4.63;;
67248;SDS011;63247;54.300;18.592;2022-12-07T04:53:16;14.93;;;4.50;;
67248;SDS011;63247;54.300;18.592;2022-12-07T04:55:42;16.73;;;4.47;;
67248;SDS011;63247;54.300;18.592;2022-12-07T04:58:07;19.92;;;4.97;;
67248;SDS011;63247;54.300;18.592;2022-12-07T05:00:33;15.50;;;4.37;;
67248;SDS011;63247;54.300;18.592;2022-12-07T05:02:58;14.83;;;4.43;;
67248;SDS011;63247;54.300;18.592;2022-12-07T05:05:23;17.67;;;4.40;;
67248;SDS011;63247;54.300;18.592;2022-12-07T05:07:49;14.60;;;4.38;;
67248;SDS011;63247;54.300;18.592;2022-12-07T05:10:15;14.27;;;4.45;;
67248;SDS011;63247;54.300;18.592;2022-12-07T05:12:40;13.77;;;4.53;;
67248;SDS011;63247;54.300;18.592;2022-12-07T05:15:06;17.10;;;5.05;;
67248;SDS011;63247;54.300;18.592;2022-12-07T05:17:31;13.67;;;4.30;;
67248;SDS011;63247;54.300;18.592;2022-12-07T05:19:57;15.93;;;4.97;;
67248;SDS011;63247;54.300;18.592;2022-12-07T05:22:22;15.50;;;4.50;;
67248;SDS011;63247;54.300;18.592;2022-12-07T05:24:50;15.18;;;4.72;;
67248;SDS011;63247;54.300;18.592;2022-12-07T05:27:15;17.77;;;5.57;;
67248;SDS011;63247;54.300;18.592;2022-12-07T05:29:41;16.63;;;5.43;;
67248;SDS011;63247;54.300;18.592;2022-12-07T05:32:06;15.43;;;5.10;;
67248;SDS011;63247;54.300;18.592;2022-12-07T05:34:31;17.90;;;5.60;;
67248;SDS011;63247;54.300;18.592;2022-12-07T05:36:57;14.20;;;5.13;;
67248;SDS011;63247;54.300;18.592;2022-12-07T05:39:22;15.27;;;4.80;;
67248;SDS011;63247;54.300;18.592;2022-12-07T05:41:47;16.77;;;5.17;;
67248;SDS011;63247;54.300;18.592;2022-12-07T05:44:31;17.77;;;5.30;;
67248;SDS011;63247;54.300;18.592;2022-12-07T05:46:57;17.43;;;4.97;;
67248;SDS011;63247;54.300;18.592;2022-12-07T05:49:22;15.37;;;4.57;;
67248;SDS011;63247;54.300;18.592;2022-12-07T05:51:48;17.17;;;5.03;;
67248;SDS011;63247;54.300;18.592;2022-12-07T05:54:13;13.63;;;4.70;;
67248;SDS011;63247;54.300;18.592;2022-12-07T05:56:38;13.80;;;4.97;;
67248;SDS011;63247;54.300;18.592;2022-12-07T05:59:04;18.07;;;5.03;;
67248;SDS011;63247;54.300;18.592;2022-12-07T06:01:59;14.77;;;4.45;;
67248;SDS011;63247;54.300;18.592;2022-12-07T06:04:27;16.02;;;5.40;;
67248;SDS011;63247;54.300;18.592;2022-12-07T06:06:54;16.30;;;5.17;;
67248;SDS011;63247;54.300;18.592;2022-12-07T06:09:20;13.52;;;4.68;;
67248;SDS011;63247;54.300;18.592;2022-12-07T06:11:47;11.65;;;3.75;;
67248;SDS011;63247;54.300;18.592;2022-12-07T06:14:31;9.27;;;3.20;;
67248;SDS011;63247;54.300;18.592;2022-12-07T06:16:57;8.27;;;2.85;;
67248;SDS011;63247;54.300;18.592;2022-12-07T06:19:23;9.77;;;3.65;;
67248;SDS011;63247;54.300;18.592;2022-12-07T06:21:48;9.33;;;2.90;;
67248;SDS011;63247;54.300;18.592;2022-12-07T06:24:15;7.38;;;2.60;;
67248;SDS011;63247;54.300;18.592;2022-12-07T06:26:41;9.33;;;2.57;;
67248;SDS011;63247;54.300;18.592;2022-12-07T06:29:07;7.78;;;2.30;;
67248;SDS011;63247;54.300;18.592;2022-12-07T06:31:33;6.23;;;1.87;;
67248;SDS011;63247;54.300;18.592;2022-12-07T06:33:59;6.20;;;2.15;;
67248;SDS011;63247;54.300;18.592;2022-12-07T06:36:25;5.63;;;1.73;;
67248;SDS011;63247;54.300;18.592;2022-12-07T06:38:51;8.37;;;2.37;;
67248;SDS011;63247;54.300;18.592;2022-12-07T06:41:16;9.05;;;2.50;;
67248;SDS011;63247;54.300;18.592;2022-12-07T06:43:42;6.03;;;2.20;;
67248;SDS011;63247;54.300;18.592;2022-12-07T06:46:07;8.30;;;2.30;;
67248;SDS011;63247;54.300;18.592;2022-12-07T06:48:33;9.27;;;2.28;;
67248;SDS011;63247;54.300;18.592;2022-12-07T06:50:58;10.75;;;2.70;;
67248;SDS011;63247;54.300;18.592;2022-12-07T06:53:24;11.70;;;2.73;;
67248;SDS011;63247;54.300;18.592;2022-12-07T06:55:50;10.03;;;2.63;;
67248;SDS011;63247;54.300;18.592;2022-12-07T06:58:15;5.93;;;2.00;;
67248;SDS011;63247;54.300;18.592;2022-12-07T07:00:41;7.85;;;2.20;;
67248;SDS011;63247;54.300;18.592;2022-12-07T07:03:07;5.38;;;1.85;;
67248;SDS011;63247;54.300;18.592;2022-12-07T07:05:33;8.30;;;2.13;;
67248;SDS011;63247;54.300;18.592;2022-12-07T07:07:58;7.78;;;2.00;;
67248;SDS011;63247;54.300;18.592;2022-12-07T07:10:24;6.88;;;2.28;;
67248;SDS011;63247;54.300;18.592;2022-12-07T07:12:49;8.70;;;3.00;;
67248;SDS011;63247;54.300;18.592;2022-12-07T07:15:15;6.80;;;2.23;;
67248;SDS011;63247;54.300;18.592;2022-12-07T07:17:40;9.47;;;2.80;;
67248;SDS011;63247;54.300;18.592;2022-12-07T07:20:06;9.40;;;2.80;;
67248;SDS011;63247;54.300;18.592;2022-12-07T07:22:31;8.75;;;2.95;;
67248;SDS011;63247;54.300;18.592;2022-12-07T07:24:59;8.88;;;3.33;;
67248;SDS011;63247;54.300;18.592;2022-12-07T07:27:25;9.47;;;3.30;;
67248;SDS011;63247;54.300;18.592;2022-12-07T07:29:50;10.67;;;3.43;;
67248;SDS011;63247;54.300;18.592;2022-12-07T07:32:15;12.57;;;3.60;;
67248;SDS011;63247;54.300;18.592;2022-12-07T07:34:41;12.73;;;3.58;;
67248;SDS011;63247;54.300;18.592;2022-12-07T07:37:06;12.97;;;4.53;;
67248;SDS011;63247;54.300;18.592;2022-12-07T07:39:35;12.23;;;4.27;;
67248;SDS011;63247;54.300;18.592;2022-12-07T07:42:04;10.80;;;4.35;;
67248;SDS011;63247;54.300;18.592;2022-12-07T07:44:30;12.70;;;4.38;;
67248;SDS011;63247;54.300;18.592;2022-12-07T07:46:56;10.90;;;4.57;;
67248;SDS011;63247;54.300;18.592;2022-12-07T07:49:21;14.63;;;5.27;;
67248;SDS011;63247;54.300;18.592;2022-12-07T07:51:47;15.40;;;6.00;;
67248;SDS011;63247;54.300;18.592;2022-12-07T07:54:12;13.70;;;4.60;;
67248;SDS011;63247;54.300;18.592;2022-12-07T07:56:37;13.57;;;5.28;;
67248;SDS011;63247;54.300;18.592;2022-12-07T07:59:05;17.80;;;5.80;;
67248;SDS011;63247;54.300;18.592;2022-12-07T08:01:31;12.60;;;4.65;;
67248;SDS011;63247;54.300;18.592;2022-12-07T08:03:56;16.13;;;5.50;;
67248;SDS011;63247;54.300;18.592;2022-12-07T08:06:21;15.07;;;5.70;;
67248;SDS011;63247;54.300;18.592;2022-12-07T08:08:47;18.33;;;5.97;;
67248;SDS011;63247;54.300;18.592;2022-12-07T08:11:12;20.50;;;5.95;;
67248;SDS011;63247;54.300;18.592;2022-12-07T08:13:38;16.30;;;5.40;;
67248;SDS011;63247;54.300;18.592;2022-12-07T08:16:07;13.97;;;5.73;;
67248;SDS011;63247;54.300;18.592;2022-12-07T08:18:37;14.45;;;5.43;;
67248;SDS011;63247;54.300;18.592;2022-12-07T08:21:05;13.13;;;5.73;;
67248;SDS011;63247;54.300;18.592;2022-12-07T08:23:32;12.77;;;5.20;;
67248;SDS011;63247;54.300;18.592;2022-12-07T08:26:04;12.70;;;5.30;;
67248;SDS011;63247;54.300;18.592;2022-12-07T08:28:34;13.07;;;5.03;;
67248;SDS011;63247;54.300;18.592;2022-12-07T08:31:03;12.35;;;5.22;;
67248;SDS011;63247;54.300;18.592;2022-12-07T08:33:36;11.05;;;4.60;;
67248;SDS011;63247;54.300;18.592;2022-12-07T08:36:06;13.40;;;5.22;;
67248;SDS011;63247;54.300;18.592;2022-12-07T08:38:34;14.57;;;6.30;;
67248;SDS011;63247;54.300;18.592;2022-12-07T08:41:00;13.27;;;5.20;;
67248;SDS011;63247;54.300;18.592;2022-12-07T08:43:26;13.40;;;5.75;;
67248;SDS011;63247;54.300;18.592;2022-12-07T08:45:54;14.77;;;5.50;;
67248;SDS011;63247;54.300;18.592;2022-12-07T08:49:05;15.18;;;6.10;;
67248;SDS011;63247;54.300;18.592;2022-12-07T08:51:31;14.40;;;5.68;;
67248;SDS011;63247;54.300;18.592;2022-12-07T08:53:56;12.90;;;5.03;;
67248;SDS011;63247;54.300;18.592;2022-12-07T08:56:26;19.40;;;6.13;;
67248;SDS011;63247;54.300;18.592;2022-12-07T08:58:52;19.95;;;6.32;;
67248;SDS011;63247;54.300;18.592;2022-12-07T09:01:17;12.77;;;5.07;;
67248;SDS011;63247;54.300;18.592;2022-12-07T09:03:43;13.02;;;4.50;;
67248;SDS011;63247;54.300;18.592;2022-12-07T09:06:08;13.23;;;4.67;;
67248;SDS011;63247;54.300;18.592;2022-12-07T09:08:41;12.70;;;4.73;;
67248;SDS011;63247;54.300;18.592;2022-12-07T09:11:10;13.07;;;4.45;;
67248;SDS011;63247;54.300;18.592;2022-12-07T09:13:36;13.80;;;4.80;;
67248;SDS011;63247;54.300;18.592;2022-12-07T09:16:01;11.87;;;4.63;;
67248;SDS011;63247;54.300;18.592;2022-12-07T09:18:27;10.02;;;4.30;;
67248;SDS011;63247;54.300;18.592;2022-12-07T09:20:52;12.63;;;4.67;;
67248;SDS011;63247;54.300;18.592;2022-12-07T09:23:17;10.87;;;4.20;;
67248;SDS011;63247;54.300;18.592;2022-12-07T09:25:43;11.67;;;4.67;;
67248;SDS011;63247;54.300;18.592;2022-12-07T09:28:09;11.93;;;4.53;;
67248;SDS011;63247;54.300;18.592;2022-12-07T09:30:34;14.20;;;4.80;;
67248;SDS011;63247;54.300;18.592;2022-12-07T09:33:00;11.52;;;4.63;;
67248;SDS011;63247;54.300;18.592;2022-12-07T09:35:26;14.43;;;5.70;;
67248;SDS011;63247;54.300;18.592;2022-12-07T09:37:52;11.48;;;4.80;;
67248;SDS011;63247;54.300;18.592;2022-12-07T09:40:18;13.68;;;5.43;;
67248;SDS011;63247;54.300;18.592;2022-12-07T09:42:47;13.27;;;5.23;;
67248;SDS011;63247;54.300;18.592;2022-12-07T09:45:16;14.05;;;5.55;;
67248;SDS011;63247;54.300;18.592;2022-12-07T09:47:46;15.55;;;5.50;;
67248;SDS011;63247;54.300;18.592;2022-12-07T09:50:13;13.93;;;5.57;;
67248;SDS011;63247;54.300;18.592;2022-12-07T09:52:42;15.77;;;5.50;;
67248;SDS011;63247;54.300;18.592;2022-12-07T09:55:13;14.75;;;5.60;;
67248;SDS011;63247;54.300;18.592;2022-12-07T09:57:41;12.35;;;5.10;;
67248;SDS011;63247;54.300;18.592;2022-12-07T10:00:16;14.63;;;5.40;;
67248;SDS011;63247;54.300;18.592;2022-12-07T10:02:46;12.73;;;5.60;;
67248;SDS011;63247;54.300;18.592;2022-12-07T10:05:40;14.80;;;5.67;;
67248;SDS011;63247;54.300;18.592;2022-12-07T10:08:10;15.40;;;5.78;;
67248;SDS011;63247;54.300;18.592;2022-12-07T10:10:37;13.75;;;5.22;;
67248;SDS011;63247;54.300;18.592;2022-12-07T10:13:06;11.48;;;4.35;;
67248;SDS011;63247;54.300;18.592;2022-12-07T10:15:52;16.92;;;4.85;;
67248;SDS011;63247;54.300;18.592;2022-12-07T10:18:39;12.80;;;5.67;;
67248;SDS011;63247;54.300;18.592;2022-12-07T10:23:43;12.52;;;5.10;;
67248;SDS011;63247;54.300;18.592;2022-12-07T10:26:27;11.05;;;5.00;;
67248;SDS011;63247;54.300;18.592;2022-12-07T10:28:56;11.55;;;5.10;;
67248;SDS011;63247;54.300;18.592;2022-12-07T10:31:24;11.33;;;4.70;;
67248;SDS011;63247;54.300;18.592;2022-12-07T10:36:17;13.00;;;5.17;;
67248;SDS011;63247;54.300;18.592;2022-12-07T10:39:01;13.68;;;5.70;;
67248;SDS011;63247;54.300;18.592;2022-12-07T10:41:34;12.60;;;5.40;;
67248;SDS011;63247;54.300;18.592;2022-12-07T10:43:59;12.07;;;4.93;;
67248;SDS011;63247;54.300;18.592;2022-12-07T11:00:43;9.50;;;3.90;;
67248;SDS011;63247;54.300;18.592;2022-12-07T11:11:34;9.20;;;3.60;;
67248;SDS011;63247;54.300;18.592;2022-12-07T11:22:51;10.77;;;4.88;;
67248;SDS011;63247;54.300;18.592;2022-12-07T11:25:59;9.80;;;3.90;;
67248;SDS011;63247;54.300;18.592;2022-12-07T11:36:51;10.80;;;4.30;;
67248;SDS011;63247;54.300;18.592;2022-12-07T11:39:30;12.75;;;4.50;;
67248;SDS011;63247;54.300;18.592;2022-12-07T11:42:04;11.45;;;4.30;;
67248;SDS011;63247;54.300;18.592;2022-12-07T11:44:47;11.57;;;4.95;;
67248;SDS011;63247;54.300;18.592;2022-12-07T11:50:01;10.68;;;4.30;;
67248;SDS011;63247;54.300;18.592;2022-12-07T11:53:18;13.00;;;5.32;;
67248;SDS011;63247;54.300;18.592;2022-12-07T11:55:46;11.75;;;4.88;;
67248;SDS011;63247;54.300;18.592;2022-12-07T12:01:16;12.33;;;5.00;;
67248;SDS011;63247;54.300;18.592;2022-12-07T12:06:22;14.52;;;5.35;;
67248;SDS011;63247;54.300;18.592;2022-12-07T12:14:24;13.43;;;5.47;;
67248;SDS011;63247;54.300;18.592;2022-12-07T12:22:44;10.98;;;4.15;;
67248;SDS011;63247;54.300;18.592;2022-12-07T12:25:17;15.90;;;4.90;;
67248;SDS011;63247;54.300;18.592;2022-12-07T12:27:57;13.73;;;5.20;;
67248;SDS011;63247;54.300;18.592;2022-12-07T12:30:32;12.57;;;5.80;;
67248;SDS011;63247;54.300;18.592;2022-12-07T12:33:04;14.53;;;5.67;;
67248;SDS011;63247;54.300;18.592;2022-12-07T12:51:57;14.63;;;5.07;;
67248;SDS011;63247;54.300;18.592;2022-12-07T12:54:24;20.75;;;7.07;;
67248;SDS011;63247;54.300;18.592;2022-12-07T12:57:00;22.80;;;8.52;;
67248;SDS011;63247;54.300;18.592;2022-12-07T13:04:52;17.00;;;6.40;;
67248;SDS011;63247;54.300;18.592;2022-12-07T13:15:50;17.73;;;6.63;;
67248;SDS011;63247;54.300;18.592;2022-12-07T13:20:55;18.33;;;6.15;;
67248;SDS011;63247;54.300;18.592;2022-12-07T13:25:54;17.20;;;5.45;;
67248;SDS011;63247;54.300;18.592;2022-12-07T13:28:21;17.45;;;5.50;;
67248;SDS011;63247;54.300;18.592;2022-12-07T13:33:34;17.50;;;6.18;;
67248;SDS011;63247;54.300;18.592;2022-12-07T13:36:00;19.10;;;6.50;;
67248;SDS011;63247;54.300;18.592;2022-12-07T13:38:29;20.53;;;6.10;;
67248;SDS011;63247;54.300;18.592;2022-12-07T13:41:14;22.38;;;5.60;;
67248;SDS011;63247;54.300;18.592;2022-12-07T13:43:52;19.50;;;6.13;;
67248;SDS011;63247;54.300;18.592;2022-12-07T13:46:25;19.93;;;5.97;;
67248;SDS011;63247;54.300;18.592;2022-12-07T13:48:56;18.67;;;5.53;;
67248;SDS011;63247;54.300;18.592;2022-12-07T13:51:25;21.17;;;5.80;;
67248;SDS011;63247;54.300;18.592;2022-12-07T13:53:53;22.37;;;6.53;;
67248;SDS011;63247;54.300;18.592;2022-12-07T13:56:27;17.50;;;5.15;;
67248;SDS011;63247;54.300;18.592;2022-12-07T13:58:57;14.48;;;5.07;;
67248;SDS011;63247;54.300;18.592;2022-12-07T14:01:23;16.07;;;5.07;;
67248;SDS011;63247;54.300;18.592;2022-12-07T14:03:49;17.25;;;5.20;;
67248;SDS011;63247;54.300;18.592;2022-12-07T14:06:17;14.27;;;4.45;;
67248;SDS011;63247;54.300;18.592;2022-12-07T14:08:43;14.90;;;4.43;;
67248;SDS011;63247;54.300;18.592;2022-12-07T14:11:18;13.70;;;4.88;;
67248;SDS011;63247;54.300;18.592;2022-12-07T14:16:30;12.93;;;4.30;;
67248;SDS011;63247;54.300;18.592;2022-12-07T14:19:02;13.93;;;4.40;;
67248;SDS011;63247;54.300;18.592;2022-12-07T14:21:30;16.33;;;4.70;;
67248;SDS011;63247;54.300;18.592;2022-12-07T14:24:02;16.50;;;5.10;;
67248;SDS011;63247;54.300;18.592;2022-12-07T14:26:43;19.15;;;5.57;;
67248;SDS011;63247;54.300;18.592;2022-12-07T14:31:50;19.27;;;6.27;;
67248;SDS011;63247;54.300;18.592;2022-12-07T14:34:19;16.90;;;5.60;;
67248;SDS011;63247;54.300;18.592;2022-12-07T14:36:45;14.82;;;5.15;;
67248;SDS011;63247;54.300;18.592;2022-12-07T14:39:11;14.40;;;4.83;;
67248;SDS011;63247;54.300;18.592;2022-12-07T14:41:36;14.27;;;4.95;;
67248;SDS011;63247;54.300;18.592;2022-12-07T14:44:17;12.70;;;4.35;;
67248;SDS011;63247;54.300;18.592;2022-12-07T14:46:45;16.77;;;5.22;;
67248;SDS011;63247;54.300;18.592;2022-12-07T14:49:10;15.93;;;4.53;;
67248;SDS011;63247;54.300;18.592;2022-12-07T14:51:36;11.48;;;4.10;;
67248;SDS011;63247;54.300;18.592;2022-12-07T14:54:05;12.68;;;4.28;;
67248;SDS011;63247;54.300;18.592;2022-12-07T14:56:34;14.45;;;5.35;;
67248;SDS011;63247;54.300;18.592;2022-12-07T14:59:00;16.83;;;5.33;;
67248;SDS011;63247;54.300;18.592;2022-12-07T15:01:25;12.40;;;4.20;;
67248;SDS011;63247;54.300;18.592;2022-12-07T15:03:50;11.85;;;3.72;;
67248;SDS011;63247;54.300;18.592;2022-12-07T15:06:17;10.23;;;4.00;;
67248;SDS011;63247;54.300;18.592;2022-12-07T15:08:43;12.82;;;4.05;;
67248;SDS011;63247;54.300;18.592;2022-12-07T15:11:15;13.20;;;4.13;;
67248;SDS011;63247;54.300;18.592;2022-12-07T15:13:41;11.25;;;4.53;;
67248;SDS011;63247;54.300;18.592;2022-12-07T15:16:25;11.38;;;4.50;;
67248;SDS011;63247;54.300;18.592;2022-12-07T15:18:50;15.83;;;4.03;;
67248;SDS011;63247;54.300;18.592;2022-12-07T15:21:16;11.48;;;4.72;;
67248;SDS011;63247;54.300;18.592;2022-12-07T15:23:42;15.40;;;4.17;;
67248;SDS011;63247;54.300;18.592;2022-12-07T15:26:09;10.18;;;3.72;;
67248;SDS011;63247;54.300;18.592;2022-12-07T15:28:35;11.27;;;3.90;;
67248;SDS011;63247;54.300;18.592;2022-12-07T15:31:01;10.27;;;3.78;;
67248;SDS011;63247;54.300;18.592;2022-12-07T15:33:26;11.07;;;3.73;;
67248;SDS011;63247;54.300;18.592;2022-12-07T15:35:52;10.10;;;3.27;;
67248;SDS011;63247;54.300;18.592;2022-12-07T15:38:17;9.25;;;3.67;;
67248;SDS011;63247;54.300;18.592;2022-12-07T15:40:46;12.20;;;3.40;;
67248;SDS011;63247;54.300;18.592;2022-12-07T15:43:11;11.38;;;3.78;;
67248;SDS011;63247;54.300;18.592;2022-12-07T15:45:56;10.77;;;4.10;;
67248;SDS011;63247;54.300;18.592;2022-12-07T15:48:21;15.77;;;4.05;;
67248;SDS011;63247;54.300;18.592;2022-12-07T15:50:47;14.13;;;3.90;;
67248;SDS011;63247;54.300;18.592;2022-12-07T15:53:12;12.73;;;4.43;;
67248;SDS011;63247;54.300;18.592;2022-12-07T15:55:38;11.98;;;4.07;;
67248;SDS011;63247;54.300;18.592;2022-12-07T15:58:05;11.35;;;4.20;;
67248;SDS011;63247;54.300;18.592;2022-12-07T16:00:30;14.10;;;4.70;;
67248;SDS011;63247;54.300;18.592;2022-12-07T16:02:56;13.97;;;4.63;;
67248;SDS011;63247;54.300;18.592;2022-12-07T16:05:21;11.83;;;3.87;;
67248;SDS011;63247;54.300;18.592;2022-12-07T16:07:47;11.15;;;3.63;;
67248;SDS011;63247;54.300;18.592;2022-12-07T16:10:12;10.20;;;4.33;;
67248;SDS011;63247;54.300;18.592;2022-12-07T16:12:38;9.40;;;3.57;;
67248;SDS011;63247;54.300;18.592;2022-12-07T16:15:04;9.90;;;3.50;;
67248;SDS011;63247;54.300;18.592;2022-12-07T16:17:30;10.75;;;3.90;;
67248;SDS011;63247;54.300;18.592;2022-12-07T16:19:55;9.93;;;3.50;;
67248;SDS011;63247;54.300;18.592;2022-12-07T16:22:22;8.98;;;3.10;;
67248;SDS011;63247;54.300;18.592;2022-12-07T16:24:48;9.38;;;3.00;;
67248;SDS011;63247;54.300;18.592;2022-12-07T16:27:14;8.03;;;3.10;;
67248;SDS011;63247;54.300;18.592;2022-12-07T16:29:39;8.70;;;3.13;;
67248;SDS011;63247;54.300;18.592;2022-12-07T16:32:05;10.47;;;3.57;;
67248;SDS011;63247;54.300;18.592;2022-12-07T16:34:30;8.73;;;2.80;;
67248;SDS011;63247;54.300;18.592;2022-12-07T16:36:56;9.70;;;3.08;;
67248;SDS011;63247;54.300;18.592;2022-12-07T16:39:21;10.90;;;3.47;;
67248;SDS011;63247;54.300;18.592;2022-12-07T16:41:47;10.63;;;3.30;;
67248;SDS011;63247;54.300;18.592;2022-12-07T16:44:12;9.85;;;3.17;;
67248;SDS011;63247;54.300;18.592;2022-12-07T16:46:38;8.70;;;2.70;;
67248;SDS011;63247;54.300;18.592;2022-12-07T16:49:04;11.55;;;3.50;;
67248;SDS011;63247;54.300;18.592;2022-12-07T16:51:30;13.33;;;3.40;;
67248;SDS011;63247;54.300;18.592;2022-12-07T16:53:56;12.10;;;3.70;;